Island Eagle — WDB2798 — position and weather

sailwx.info

Track history (hours):
 
Tides and Currents Weather Stations Pressure Air Temp Water Temp Dewpoint Dewpoint Depression Visibility Wind Speed Wind Dir Waves Ship Positions

Island Eagle

Owner: Island Tug and Barge, Seattle, WA. More information available from US FCC via Universal Licensing System and Coast Guard Vessel Documentation Center.

Last reported at 2018-Jan-19 21:35 UTC. Time now 2018-Jan-21 08:45 UTC.
Position N 47°34' W 122°21'.

; draft 2 m.

Type: Towing. MMSI: 366879910.

Date/timePositionNaut miles runAvg speedWind from/ knotsBaromVisibWave heightAir tempDewpointWater temp
2018-Jan-19 21:35N 47°34' W 122°21'0 1.4
2018-Jan-19 21:30N 47°34' W 122°21'1 1.1
2018-Jan-19 21:00N 47°34' W 122°21'0 0.0
2018-Jan-19 20:25N 47°34' W 122°21'0 0.1
2018-Jan-19 19:30N 47°34' W 122°21'0 0.2
2018-Jan-19 18:58N 47°34' W 122°22'1 1.2
2018-Jan-19 18:18N 47°34' W 122°21'0 0.1
2018-Jan-19 17:58N 47°34' W 122°21'1 1.2
2018-Jan-19 17:23N 47°34' W 122°21'0 0.1
2018-Jan-19 16:56N 47°34' W 122°21'0 0.0
2018-Jan-19 16:30N 47°34' W 122°21'0 0.1
2018-Jan-19 15:57N 47°34' W 122°21'0 0.0
2018-Jan-19 15:29N 47°34' W 122°21'0 0.2
2018-Jan-19 14:59N 47°34' W 122°22'1 1.1
2018-Jan-19 14:30N 47°34' W 122°21'0 0.0
2018-Jan-18 21:41N 47°34' W 122°21'0 2.6
2018-Jan-18 21:30N 47°34' W 122°21'0 0.5
2018-Jan-18 21:00N 47°34' W 122°21'1 1.2
2018-Jan-18 20:26N 47°34' W 122°21'0 0.0
2018-Jan-18 20:00N 47°34' W 122°21'0 0.0
2018-Jan-18 19:30N 47°34' W 122°21'1 0.2
2018-Jan-18 16:36N 47°34' W 122°21'0 0.0
2018-Jan-18 16:29N 47°34' W 122°21'0 0.6
2018-Jan-18 15:57N 47°34' W 122°21'1 1.0
2018-Jan-18 15:18N 47°33' W 122°21'1 2.5
2018-Jan-18 15:00N 47°33' W 122°20'1 1.8
2018-Jan-18 14:21N 47°34' W 122°21'1 0.1
2018-Jan-18 09:23N 47°34' W 122°21'0 0.0
2018-Jan-18 05:49N 47°34' W 122°21'0 0.0
2018-Jan-18 01:43N 47°34' W 122°21'0 0.0
2018-Jan-18 01:29N 47°34' W 122°21'0 0.0
2018-Jan-18 00:55N 47°34' W 122°21'0 0.0
2018-Jan-17 23:41N 47°34' W 122°21'  
2018-Jan-12 15:00N 47°33' W 122°20'2 0.1
2018-Jan-11 23:12N 47°34' W 122°21'0 2.3
2018-Jan-11 22:59N 47°34' W 122°21'0 0.3
2018-Jan-11 22:29N 47°34' W 122°21'0 0.7
2018-Jan-11 22:00N 47°34' W 122°21'0 0.0
2018-Jan-11 21:30N 47°34' W 122°21'0 0.0
2018-Jan-11 21:00N 47°34' W 122°21'0 0.0
2018-Jan-11 20:30N 47°34' W 122°21'0 0.0
2018-Jan-11 19:59N 47°34' W 122°21'0 0.0
2018-Jan-11 19:30N 47°34' W 122°21'0 0.1
2018-Jan-11 19:00N 47°34' W 122°21'0 0.6
2018-Jan-11 18:29N 47°34' W 122°21'0 0.5
2018-Jan-11 17:50N 47°34' W 122°21'0 0.1
2018-Jan-11 16:31N 47°34' W 122°21'0 0.0
2018-Jan-11 16:17N 47°34' W 122°21'1 0.2
2018-Jan-11 11:58N 47°34' W 122°21'0 0.0
2018-Jan-11 11:31N 47°34' W 122°21'0 0.0
2018-Jan-11 11:00N 47°34' W 122°21'0 0.0
2018-Jan-11 10:30N 47°34' W 122°21'0 0.0
2018-Jan-11 10:00N 47°34' W 122°21'0 0.0
2018-Jan-11 09:31N 47°34' W 122°21'0 0.0
2018-Jan-11 09:01N 47°34' W 122°21'0 0.0
2018-Jan-11 08:31N 47°34' W 122°21'0 0.0
2018-Jan-11 08:00N 47°34' W 122°21'0 0.0
2018-Jan-11 07:30N 47°34' W 122°21'0 0.0
2018-Jan-11 07:00N 47°34' W 122°21'0 0.0
2018-Jan-11 06:30N 47°34' W 122°21'0 0.0
2018-Jan-11 06:00N 47°34' W 122°21'0 0.0
2018-Jan-11 05:30N 47°34' W 122°21'0 0.0
2018-Jan-11 05:00N 47°34' W 122°21'0 0.0
2018-Jan-11 04:30N 47°34' W 122°21'0 0.0
2018-Jan-11 04:01N 47°34' W 122°21'0 0.0
2018-Jan-11 03:30N 47°34' W 122°21'0 0.0
2018-Jan-11 03:00N 47°34' W 122°21'0 0.0
2018-Jan-11 02:31N 47°34' W 122°21'0 0.0
2018-Jan-11 02:00N 47°34' W 122°21'0 0.0
2018-Jan-11 01:30N 47°34' W 122°21'0 0.0
2018-Jan-11 01:00N 47°34' W 122°21'0 0.0
2018-Jan-11 00:30N 47°34' W 122°21'0 0.0
2018-Jan-10 23:57N 47°34' W 122°21'4 7.9
2018-Jan-10 23:30N 47°31' W 122°18'1 1.7
2018-Jan-10 23:00N 47°32' W 122°19'3 5.3
2018-Jan-10 22:30N 47°34' W 122°21'1 2.4
2018-Jan-10 22:00N 47°36' W 122°22'2 4.5
2018-Jan-10 21:30N 47°33' W 122°21'2 4.2
2018-Jan-10 21:00N 47°32' W 122°19'0 0.4
2018-Jan-10 20:30N 47°32' W 122°19'3 5.9
2018-Jan-10 20:00N 47°34' W 122°21'0 0.8
2018-Jan-10 19:30N 47°34' W 122°21'0 0.7
2018-Jan-10 19:00N 47°34' W 122°21'0 0.8
2018-Jan-10 18:30N 47°34' W 122°21'1 1.5
2018-Jan-10 18:00N 47°34' W 122°21'3 5.1
2018-Jan-10 17:30N 47°32' W 122°19'1 1.3
2018-Jan-10 16:59N 47°31' W 122°18'3 5.9
2018-Jan-10 16:30N 47°34' W 122°21'1 1.0
2018-Jan-10 16:00N 47°34' W 122°21'0 0.3
2018-Jan-10 15:30N 47°34' W 122°21'2 3.5
2018-Jan-10 14:59N 47°32' W 122°20'2 3.6
2018-Jan-10 14:30N 47°31' W 122°18'0 0.1
2018-Jan-10 14:00N 47°31' W 122°18'0 0.2
2018-Jan-10 13:30N 47°31' W 122°18'1 1.5
2018-Jan-10 13:00N 47°32' W 122°19'2 4.6
2018-Jan-10 12:30N 47°34' W 122°21'2 4.6
2018-Jan-10 12:00N 47°36' W 122°21'1 2.0
2018-Jan-10 11:30N 47°35' W 122°22'2 4.3
2018-Jan-10 11:00N 47°33' W 122°20'2 3.9
2018-Jan-10 10:30N 47°32' W 122°19'1 1.0
2018-Jan-10 10:00N 47°31' W 122°18'0 0.0
2018-Jan-10 09:30N 47°31' W 122°18'0 0.0
2018-Jan-10 09:00N 47°31' W 122°18'2 3.2
2018-Jan-10 08:30N 47°32' W 122°20'2 4.6
2018-Jan-10 08:00N 47°34' W 122°21'0 0.0
2018-Jan-10 00:02N 47°34' W 122°21'0 1.9
2018-Jan-10 00:00N 47°34' W 122°21'4 7.7
2018-Jan-09 23:30N 47°31' W 122°18'2 3.9
2018-Jan-09 23:00N 47°33' W 122°20'3 5.4
2018-Jan-09 22:30N 47°35' W 122°22'0 0.7
2018-Jan-09 22:00N 47°35' W 122°22'  
Track history (hours):
 
Tides and Currents Weather Stations Pressure Air Temp Water Temp Dewpoint Dewpoint Depression Visibility Wind Speed Wind Dir Waves Ship Positions

Island Eagle

Owner: Island Tug and Barge, Seattle, WA. More information available from US FCC via Universal Licensing System and Coast Guard Vessel Documentation Center.

Last reported at 2018-Jan-19 21:35 UTC. Time now 2018-Jan-21 08:45 UTC.
Position N 47°34' W 122°21'.

; draft 2 m.

Type: Towing. MMSI: 366879910.

Date/timePositionNaut miles runAvg speedWind from/ knotsBaromVisibWave heightAir tempDewpointWater temp
2018-Jan-19 21:35N 47°34' W 122°21'0 1.4
2018-Jan-19 21:30N 47°34' W 122°21'1 1.1
2018-Jan-19 21:00N 47°34' W 122°21'0 0.0
2018-Jan-19 20:25N 47°34' W 122°21'0 0.1
2018-Jan-19 19:30N 47°34' W 122°21'0 0.2
2018-Jan-19 18:58N 47°34' W 122°22'1 1.2
2018-Jan-19 18:18N 47°34' W 122°21'0 0.1
2018-Jan-19 17:58N 47°34' W 122°21'1 1.2
2018-Jan-19 17:23N 47°34' W 122°21'0 0.1
2018-Jan-19 16:56N 47°34' W 122°21'0 0.0
2018-Jan-19 16:30N 47°34' W 122°21'0 0.1
2018-Jan-19 15:57N 47°34' W 122°21'0 0.0
2018-Jan-19 15:29N 47°34' W 122°21'0 0.2
2018-Jan-19 14:59N 47°34' W 122°22'1 1.1
2018-Jan-19 14:30N 47°34' W 122°21'0 0.0
2018-Jan-18 21:41N 47°34' W 122°21'0 2.6
2018-Jan-18 21:30N 47°34' W 122°21'0 0.5
2018-Jan-18 21:00N 47°34' W 122°21'1 1.2
2018-Jan-18 20:26N 47°34' W 122°21'0 0.0
2018-Jan-18 20:00N 47°34' W 122°21'0 0.0
2018-Jan-18 19:30N 47°34' W 122°21'1 0.2
2018-Jan-18 16:36N 47°34' W 122°21'0 0.0
2018-Jan-18 16:29N 47°34' W 122°21'0 0.6
2018-Jan-18 15:57N 47°34' W 122°21'1 1.0
2018-Jan-18 15:18N 47°33' W 122°21'1 2.5
2018-Jan-18 15:00N 47°33' W 122°20'1 1.8
2018-Jan-18 14:21N 47°34' W 122°21'1 0.1
2018-Jan-18 09:23N 47°34' W 122°21'0 0.0
2018-Jan-18 05:49N 47°34' W 122°21'0 0.0
2018-Jan-18 01:43N 47°34' W 122°21'0 0.0
2018-Jan-18 01:29N 47°34' W 122°21'0 0.0
2018-Jan-18 00:55N 47°34' W 122°21'0 0.0
2018-Jan-17 23:41N 47°34' W 122°21'  
2018-Jan-12 15:00N 47°33' W 122°20'2 0.1
2018-Jan-11 23:12N 47°34' W 122°21'0 2.3
2018-Jan-11 22:59N 47°34' W 122°21'0 0.3
2018-Jan-11 22:29N 47°34' W 122°21'0 0.7
2018-Jan-11 22:00N 47°34' W 122°21'0 0.0
2018-Jan-11 21:30N 47°34' W 122°21'0 0.0
2018-Jan-11 21:00N 47°34' W 122°21'0 0.0
2018-Jan-11 20:30N 47°34' W 122°21'0 0.0
2018-Jan-11 19:59N 47°34' W 122°21'0 0.0
2018-Jan-11 19:30N 47°34' W 122°21'0 0.1
2018-Jan-11 19:00N 47°34' W 122°21'0 0.6
2018-Jan-11 18:29N 47°34' W 122°21'0 0.5
2018-Jan-11 17:50N 47°34' W 122°21'0 0.1
2018-Jan-11 16:31N 47°34' W 122°21'0 0.0
2018-Jan-11 16:17N 47°34' W 122°21'1 0.2
2018-Jan-11 11:58N 47°34' W 122°21'0 0.0
2018-Jan-11 11:31N 47°34' W 122°21'0 0.0
2018-Jan-11 11:00N 47°34' W 122°21'0 0.0
2018-Jan-11 10:30N 47°34' W 122°21'0 0.0
2018-Jan-11 10:00N 47°34' W 122°21'0 0.0
2018-Jan-11 09:31N 47°34' W 122°21'0 0.0
2018-Jan-11 09:01N 47°34' W 122°21'0 0.0
2018-Jan-11 08:31N 47°34' W 122°21'0 0.0
2018-Jan-11 08:00N 47°34' W 122°21'0 0.0
2018-Jan-11 07:30N 47°34' W 122°21'0 0.0
2018-Jan-11 07:00N 47°34' W 122°21'0 0.0
2018-Jan-11 06:30N 47°34' W 122°21'0 0.0
2018-Jan-11 06:00N 47°34' W 122°21'0 0.0
2018-Jan-11 05:30N 47°34' W 122°21'0 0.0
2018-Jan-11 05:00N 47°34' W 122°21'0 0.0
2018-Jan-11 04:30N 47°34' W 122°21'0 0.0
2018-Jan-11 04:01N 47°34' W 122°21'0 0.0
2018-Jan-11 03:30N 47°34' W 122°21'0 0.0
2018-Jan-11 03:00N 47°34' W 122°21'0 0.0
2018-Jan-11 02:31N 47°34' W 122°21'0 0.0
2018-Jan-11 02:00N 47°34' W 122°21'0 0.0
2018-Jan-11 01:30N 47°34' W 122°21'0 0.0
2018-Jan-11 01:00N 47°34' W 122°21'0 0.0
2018-Jan-11 00:30N 47°34' W 122°21'0 0.0
2018-Jan-10 23:57N 47°34' W 122°21'4 7.9
2018-Jan-10 23:30N 47°31' W 122°18'1 1.7
2018-Jan-10 23:00N 47°32' W 122°19'3 5.3
2018-Jan-10 22:30N 47°34' W 122°21'1 2.4
2018-Jan-10 22:00N 47°36' W 122°22'2 4.5
2018-Jan-10 21:30N 47°33' W 122°21'2 4.2
2018-Jan-10 21:00N 47°32' W 122°19'0 0.4
2018-Jan-10 20:30N 47°32' W 122°19'3 5.9
2018-Jan-10 20:00N 47°34' W 122°21'0 0.8
2018-Jan-10 19:30N 47°34' W 122°21'0 0.7
2018-Jan-10 19:00N 47°34' W 122°21'0 0.8
2018-Jan-10 18:30N 47°34' W 122°21'1 1.5
2018-Jan-10 18:00N 47°34' W 122°21'3 5.1
2018-Jan-10 17:30N 47°32' W 122°19'1 1.3
2018-Jan-10 16:59N 47°31' W 122°18'3 5.9
2018-Jan-10 16:30N 47°34' W 122°21'1 1.0
2018-Jan-10 16:00N 47°34' W 122°21'0 0.3
2018-Jan-10 15:30N 47°34' W 122°21'2 3.5
2018-Jan-10 14:59N 47°32' W 122°20'2 3.6
2018-Jan-10 14:30N 47°31' W 122°18'0 0.1
2018-Jan-10 14:00N 47°31' W 122°18'0 0.2
2018-Jan-10 13:30N 47°31' W 122°18'1 1.5
2018-Jan-10 13:00N 47°32' W 122°19'2 4.6
2018-Jan-10 12:30N 47°34' W 122°21'2 4.6
2018-Jan-10 12:00N 47°36' W 122°21'1 2.0
2018-Jan-10 11:30N 47°35' W 122°22'2 4.3
2018-Jan-10 11:00N 47°33' W 122°20'2 3.9
2018-Jan-10 10:30N 47°32' W 122°19'1 1.0
2018-Jan-10 10:00N 47°31' W 122°18'0 0.0
2018-Jan-10 09:30N 47°31' W 122°18'0 0.0
2018-Jan-10 09:00N 47°31' W 122°18'2 3.2
2018-Jan-10 08:30N 47°32' W 122°20'2 4.6
2018-Jan-10 08:00N 47°34' W 122°21'0 0.0
2018-Jan-10 00:02N 47°34' W 122°21'0 1.9
2018-Jan-10 00:00N 47°34' W 122°21'4 7.7
2018-Jan-09 23:30N 47°31' W 122°18'2 3.9
2018-Jan-09 23:00N 47°33' W 122°20'3 5.4
2018-Jan-09 22:30N 47°35' W 122°22'0 0.7
2018-Jan-09 22:00N 47°35' W 122°22'  

Dump ship's entire track history